sensor_id;sensor_type;location;lat;lon;timestamp;P1;durP1;ratioP1;P2;durP2;ratioP2
19575;SDS011;41589;51.196;7.074;2022-09-28T00:00:21;1.83;;;1.70;;
19575;SDS011;41589;51.196;7.074;2022-09-28T00:05:23;1.60;;;1.50;;
19575;SDS011;41589;51.196;7.074;2022-09-28T00:10:25;1.77;;;1.67;;
19575;SDS011;41589;51.196;7.074;2022-09-28T00:15:26;1.60;;;1.50;;
19575;SDS011;41589;51.196;7.074;2022-09-28T00:20:26;1.80;;;1.70;;
19575;SDS011;41589;51.196;7.074;2022-09-28T00:25:27;1.77;;;1.67;;
19575;SDS011;41589;51.196;7.074;2022-09-28T00:30:29;1.50;;;1.50;;
19575;SDS011;41589;51.196;7.074;2022-09-28T00:35:29;1.53;;;1.43;;
19575;SDS011;41589;51.196;7.074;2022-09-28T00:40:30;1.83;;;1.73;;
19575;SDS011;41589;51.196;7.074;2022-09-28T00:45:30;1.77;;;1.67;;
19575;SDS011;41589;51.196;7.074;2022-09-28T00:50:31;2.43;;;2.23;;
19575;SDS011;41589;51.196;7.074;2022-09-28T00:55:48;2.30;;;2.10;;
19575;SDS011;41589;51.196;7.074;2022-09-28T01:00:52;2.13;;;2.03;;
19575;SDS011;41589;51.196;7.074;2022-09-28T01:05:57;2.23;;;2.10;;
19575;SDS011;41589;51.196;7.074;2022-09-28T01:11:01;1.93;;;1.83;;
19575;SDS011;41589;51.196;7.074;2022-09-28T01:21:26;2.60;;;2.50;;
19575;SDS011;41589;51.196;7.074;2022-09-28T01:26:34;2.70;;;2.50;;
19575;SDS011;41589;51.196;7.074;2022-09-28T01:31:38;2.77;;;2.57;;
19575;SDS011;41589;51.196;7.074;2022-09-28T01:36:48;2.90;;;2.70;;
19575;SDS011;41589;51.196;7.074;2022-09-28T01:41:53;2.90;;;2.70;;
19575;SDS011;41589;51.196;7.074;2022-09-28T01:46:59;3.20;;;3.00;;
19575;SDS011;41589;51.196;7.074;2022-09-28T01:52:09;3.40;;;2.97;;
19575;SDS011;41589;51.196;7.074;2022-09-28T02:02:32;3.67;;;3.37;;
19575;SDS011;41589;51.196;7.074;2022-09-28T02:13:08;3.70;;;3.47;;
19575;SDS011;41589;51.196;7.074;2022-09-28T02:18:14;3.87;;;3.57;;
19575;SDS011;41589;51.196;7.074;2022-09-28T02:23:14;4.27;;;3.97;;
19575;SDS011;41589;51.196;7.074;2022-09-28T02:28:16;5.23;;;4.00;;
19575;SDS011;41589;51.196;7.074;2022-09-28T02:38:23;5.00;;;4.60;;
19575;SDS011;41589;51.196;7.074;2022-09-28T02:43:39;5.43;;;5.03;;
19575;SDS011;41589;51.196;7.074;2022-09-28T02:54:25;5.40;;;5.00;;
19575;SDS011;41589;51.196;7.074;2022-09-28T03:10:27;6.00;;;5.50;;
19575;SDS011;41589;51.196;7.074;2022-09-28T03:15:32;5.80;;;5.30;;
19575;SDS011;41589;51.196;7.074;2022-09-28T03:20:34;5.90;;;5.43;;
19575;SDS011;41589;51.196;7.074;2022-09-28T03:25:35;5.97;;;5.47;;
19575;SDS011;41589;51.196;7.074;2022-09-28T03:30:36;6.10;;;5.70;;
19575;SDS011;41589;51.196;7.074;2022-09-28T03:35:36;6.63;;;6.13;;
19575;SDS011;41589;51.196;7.074;2022-09-28T03:40:37;6.70;;;6.20;;
19575;SDS011;41589;51.196;7.074;2022-09-28T03:45:37;7.10;;;6.50;;
19575;SDS011;41589;51.196;7.074;2022-09-28T03:50:38;6.43;;;5.93;;
19575;SDS011;41589;51.196;7.074;2022-09-28T03:55:38;7.70;;;7.07;;
19575;SDS011;41589;51.196;7.074;2022-09-28T04:00:39;7.33;;;6.73;;
19575;SDS011;41589;51.196;7.074;2022-09-28T04:05:47;7.43;;;6.83;;
19575;SDS011;41589;51.196;7.074;2022-09-28T04:10:51;7.27;;;6.77;;
19575;SDS011;41589;51.196;7.074;2022-09-28T04:15:55;8.33;;;7.63;;
19575;SDS011;41589;51.196;7.074;2022-09-28T04:21:00;9.07;;;8.27;;
19575;SDS011;41589;51.196;7.074;2022-09-28T04:26:06;8.17;;;7.47;;
19575;SDS011;41589;51.196;7.074;2022-09-28T04:31:12;7.70;;;7.10;;
19575;SDS011;41589;51.196;7.074;2022-09-28T04:36:15;8.60;;;7.90;;
19575;SDS011;41589;51.196;7.074;2022-09-28T04:41:16;7.53;;;6.93;;
19575;SDS011;41589;51.196;7.074;2022-09-28T04:46:17;7.10;;;6.50;;
19575;SDS011;41589;51.196;7.074;2022-09-28T04:51:35;6.87;;;6.27;;
19575;SDS011;41589;51.196;7.074;2022-09-28T04:56:36;7.10;;;6.50;;
19575;SDS011;41589;51.196;7.074;2022-09-28T05:01:36;7.63;;;7.03;;
19575;SDS011;41589;51.196;7.074;2022-09-28T05:07:09;7.67;;;6.97;;
19575;SDS011;41589;51.196;7.074;2022-09-28T05:12:10;7.97;;;7.23;;
19575;SDS011;41589;51.196;7.074;2022-09-28T05:17:11;7.97;;;7.27;;
19575;SDS011;41589;51.196;7.074;2022-09-28T05:22:32;7.67;;;7.07;;
19575;SDS011;41589;51.196;7.074;2022-09-28T05:27:32;7.87;;;7.20;;
19575;SDS011;41589;51.196;7.074;2022-09-28T05:32:40;8.20;;;7.50;;
19575;SDS011;41589;51.196;7.074;2022-09-28T05:38:02;7.70;;;7.10;;
19575;SDS011;41589;51.196;7.074;2022-09-28T05:43:03;8.13;;;7.53;;
19575;SDS011;41589;51.196;7.074;2022-09-28T05:48:05;8.50;;;7.90;;
19575;SDS011;41589;51.196;7.074;2022-09-28T05:53:06;8.43;;;7.73;;
19575;SDS011;41589;51.196;7.074;2022-09-28T05:58:10;8.00;;;7.30;;
19575;SDS011;41589;51.196;7.074;2022-09-28T06:03:12;8.47;;;7.83;;
19575;SDS011;41589;51.196;7.074;2022-09-28T06:08:13;8.40;;;7.80;;
19575;SDS011;41589;51.196;7.074;2022-09-28T06:13:18;7.63;;;6.97;;
19575;SDS011;41589;51.196;7.074;2022-09-28T06:18:19;7.23;;;6.63;;
19575;SDS011;41589;51.196;7.074;2022-09-28T06:23:38;7.00;;;6.30;;
19575;SDS011;41589;51.196;7.074;2022-09-28T06:28:39;7.60;;;6.90;;
19575;SDS011;41589;51.196;7.074;2022-09-28T06:33:42;8.03;;;7.30;;
19575;SDS011;41589;51.196;7.074;2022-09-28T06:38:44;7.87;;;7.27;;
19575;SDS011;41589;51.196;7.074;2022-09-28T06:43:47;7.83;;;7.20;;
19575;SDS011;41589;51.196;7.074;2022-09-28T06:49:06;7.40;;;6.70;;
19575;SDS011;41589;51.196;7.074;2022-09-28T06:54:26;7.63;;;6.47;;
19575;SDS011;41589;51.196;7.074;2022-09-28T06:59:34;6.13;;;5.73;;
19575;SDS011;41589;51.196;7.074;2022-09-28T07:04:35;6.40;;;5.90;;
19575;SDS011;41589;51.196;7.074;2022-09-28T07:09:54;5.90;;;5.40;;
19575;SDS011;41589;51.196;7.074;2022-09-28T07:15:07;5.50;;;5.10;;
19575;SDS011;41589;51.196;7.074;2022-09-28T07:20:08;5.80;;;5.40;;
19575;SDS011;41589;51.196;7.074;2022-09-28T07:25:09;5.60;;;5.10;;
19575;SDS011;41589;51.196;7.074;2022-09-28T07:30:31;5.40;;;4.90;;
19575;SDS011;41589;51.196;7.074;2022-09-28T07:35:37;5.33;;;4.93;;
19575;SDS011;41589;51.196;7.074;2022-09-28T07:40:38;5.17;;;4.77;;
19575;SDS011;41589;51.196;7.074;2022-09-28T07:45:58;5.67;;;4.80;;
19575;SDS011;41589;51.196;7.074;2022-09-28T07:50:59;4.83;;;4.53;;
19575;SDS011;41589;51.196;7.074;2022-09-28T07:56:13;5.00;;;4.60;;
19575;SDS011;41589;51.196;7.074;2022-09-28T08:01:29;5.17;;;4.67;;
19575;SDS011;41589;51.196;7.074;2022-09-28T08:06:29;5.37;;;4.90;;
19575;SDS011;41589;51.196;7.074;2022-09-28T08:11:30;5.17;;;4.80;;
19575;SDS011;41589;51.196;7.074;2022-09-28T08:16:58;6.50;;;5.90;;
19575;SDS011;41589;51.196;7.074;2022-09-28T08:22:11;5.13;;;4.73;;
19575;SDS011;41589;51.196;7.074;2022-09-28T08:27:13;5.93;;;5.43;;
19575;SDS011;41589;51.196;7.074;2022-09-28T08:32:15;5.43;;;4.93;;
19575;SDS011;41589;51.196;7.074;2022-09-28T08:37:51;5.30;;;4.80;;
19575;SDS011;41589;51.196;7.074;2022-09-28T08:43:17;5.07;;;4.67;;
19575;SDS011;41589;51.196;7.074;2022-09-28T08:49:12;4.00;;;3.80;;
19575;SDS011;41589;51.196;7.074;2022-09-28T08:54:45;4.57;;;4.27;;
19575;SDS011;41589;51.196;7.074;2022-09-28T08:59:59;4.20;;;3.90;;
19575;SDS011;41589;51.196;7.074;2022-09-28T09:05:11;4.10;;;3.80;;
19575;SDS011;41589;51.196;7.074;2022-09-28T09:10:46;3.83;;;3.53;;
19575;SDS011;41589;51.196;7.074;2022-09-28T09:21:13;4.60;;;4.20;;
19575;SDS011;41589;51.196;7.074;2022-09-28T09:26:36;3.90;;;3.67;;
19575;SDS011;41589;51.196;7.074;2022-09-28T09:43:03;3.40;;;3.20;;
19575;SDS011;41589;51.196;7.074;2022-09-28T09:48:26;3.83;;;3.53;;
19575;SDS011;41589;51.196;7.074;2022-09-28T09:58:43;3.73;;;3.50;;
19575;SDS011;41589;51.196;7.074;2022-09-28T10:03:54;4.43;;;3.90;;
19575;SDS011;41589;51.196;7.074;2022-09-28T10:14:42;3.67;;;3.37;;
19575;SDS011;41589;51.196;7.074;2022-09-28T10:19:43;4.00;;;3.70;;
19575;SDS011;41589;51.196;7.074;2022-09-28T10:25:02;4.13;;;3.53;;
19575;SDS011;41589;51.196;7.074;2022-09-28T10:30:20;3.07;;;2.87;;
19575;SDS011;41589;51.196;7.074;2022-09-28T10:35:26;2.70;;;2.50;;
19575;SDS011;41589;51.196;7.074;2022-09-28T10:40:44;2.70;;;2.50;;
19575;SDS011;41589;51.196;7.074;2022-09-28T10:45:58;2.53;;;2.43;;
19575;SDS011;41589;51.196;7.074;2022-09-28T10:51:06;2.50;;;2.40;;
19575;SDS011;41589;51.196;7.074;2022-09-28T10:56:17;2.30;;;2.10;;
19575;SDS011;41589;51.196;7.074;2022-09-28T11:01:22;1.93;;;1.60;;
19575;SDS011;41589;51.196;7.074;2022-09-28T11:06:32;2.13;;;1.77;;
19575;SDS011;41589;51.196;7.074;2022-09-28T11:11:41;1.80;;;1.70;;
19575;SDS011;41589;51.196;7.074;2022-09-28T11:16:43;2.60;;;1.40;;
19575;SDS011;41589;51.196;7.074;2022-09-28T11:21:47;1.40;;;1.30;;
19575;SDS011;41589;51.196;7.074;2022-09-28T11:26:49;1.60;;;1.50;;
19575;SDS011;41589;51.196;7.074;2022-09-28T11:31:58;1.33;;;1.23;;
19575;SDS011;41589;51.196;7.074;2022-09-28T11:37:05;1.27;;;1.20;;
19575;SDS011;41589;51.196;7.074;2022-09-28T11:42:18;1.00;;;1.00;;
19575;SDS011;41589;51.196;7.074;2022-09-28T11:47:34;1.20;;;1.10;;
19575;SDS011;41589;51.196;7.074;2022-09-28T11:58:09;1.20;;;1.10;;
19575;SDS011;41589;51.196;7.074;2022-09-28T12:03:20;1.33;;;1.30;;
19575;SDS011;41589;51.196;7.074;2022-09-28T12:08:28;1.40;;;1.30;;
19575;SDS011;41589;51.196;7.074;2022-09-28T12:13:59;2.10;;;1.30;;
19575;SDS011;41589;51.196;7.074;2022-09-28T12:19:23;1.70;;;1.30;;
19575;SDS011;41589;51.196;7.074;2022-09-28T12:24:39;1.80;;;1.20;;
19575;SDS011;41589;51.196;7.074;2022-09-28T12:29:45;1.10;;;1.10;;
19575;SDS011;41589;51.196;7.074;2022-09-28T12:34:52;1.00;;;1.00;;
19575;SDS011;41589;51.196;7.074;2022-09-28T12:50:39;1.20;;;1.10;;
19575;SDS011;41589;51.196;7.074;2022-09-28T12:55:49;2.07;;;1.10;;
19575;SDS011;41589;51.196;7.074;2022-09-28T13:06:31;1.40;;;1.07;;
19575;SDS011;41589;51.196;7.074;2022-09-28T13:11:48;1.00;;;0.90;;
19575;SDS011;41589;51.196;7.074;2022-09-28T13:17:21;1.00;;;1.00;;
19575;SDS011;41589;51.196;7.074;2022-09-28T13:22:41;1.27;;;1.07;;
19575;SDS011;41589;51.196;7.074;2022-09-28T13:27:57;0.93;;;0.93;;
19575;SDS011;41589;51.196;7.074;2022-09-28T13:33:03;1.40;;;1.00;;
19575;SDS011;41589;51.196;7.074;2022-09-28T13:43:22;0.97;;;0.90;;
19575;SDS011;41589;51.196;7.074;2022-09-28T13:54:03;0.77;;;0.77;;
19575;SDS011;41589;51.196;7.074;2022-09-28T13:59:30;1.13;;;1.03;;
19575;SDS011;41589;51.196;7.074;2022-09-28T14:20:28;0.80;;;0.80;;
19575;SDS011;41589;51.196;7.074;2022-09-28T14:25:31;0.90;;;0.90;;
19575;SDS011;41589;51.196;7.074;2022-09-28T14:35:42;0.80;;;0.80;;
19575;SDS011;41589;51.196;7.074;2022-09-28T14:56:26;0.70;;;0.70;;
19575;SDS011;41589;51.196;7.074;2022-09-28T15:01:28;1.60;;;0.90;;
19575;SDS011;41589;51.196;7.074;2022-09-28T15:06:45;1.23;;;0.70;;
19575;SDS011;41589;51.196;7.074;2022-09-28T15:11:46;0.70;;;0.70;;
19575;SDS011;41589;51.196;7.074;2022-09-28T15:16:47;0.80;;;0.60;;
19575;SDS011;41589;51.196;7.074;2022-09-28T15:21:47;0.77;;;0.70;;
19575;SDS011;41589;51.196;7.074;2022-09-28T15:26:50;1.20;;;0.70;;
19575;SDS011;41589;51.196;7.074;2022-09-28T15:31:50;1.00;;;0.90;;
19575;SDS011;41589;51.196;7.074;2022-09-28T15:36:51;0.80;;;0.80;;
19575;SDS011;41589;51.196;7.074;2022-09-28T15:41:55;0.97;;;0.67;;
19575;SDS011;41589;51.196;7.074;2022-09-28T15:47:07;0.70;;;0.70;;
19575;SDS011;41589;51.196;7.074;2022-09-28T15:57:37;0.80;;;0.80;;
19575;SDS011;41589;51.196;7.074;2022-09-28T16:02:38;0.83;;;0.83;;
19575;SDS011;41589;51.196;7.074;2022-09-28T16:08:00;0.90;;;0.90;;
19575;SDS011;41589;51.196;7.074;2022-09-28T16:13:10;1.20;;;0.97;;
19575;SDS011;41589;51.196;7.074;2022-09-28T16:18:16;2.13;;;0.97;;
19575;SDS011;41589;51.196;7.074;2022-09-28T16:23:21;1.73;;;1.20;;
19575;SDS011;41589;51.196;7.074;2022-09-28T16:28:25;0.73;;;0.73;;
19575;SDS011;41589;51.196;7.074;2022-09-28T16:33:29;0.80;;;0.80;;
19575;SDS011;41589;51.196;7.074;2022-09-28T16:38:38;0.80;;;0.80;;
19575;SDS011;41589;51.196;7.074;2022-09-28T16:43:38;1.10;;;0.97;;
19575;SDS011;41589;51.196;7.074;2022-09-28T16:48:40;0.87;;;0.87;;
19575;SDS011;41589;51.196;7.074;2022-09-28T16:53:47;1.00;;;1.00;;
19575;SDS011;41589;51.196;7.074;2022-09-28T16:59:07;0.83;;;0.83;;
19575;SDS011;41589;51.196;7.074;2022-09-28T17:04:09;1.17;;;1.07;;
19575;SDS011;41589;51.196;7.074;2022-09-28T17:09:11;0.90;;;0.90;;
19575;SDS011;41589;51.196;7.074;2022-09-28T17:14:11;1.03;;;1.03;;
19575;SDS011;41589;51.196;7.074;2022-09-28T17:19:20;1.37;;;1.37;;
19575;SDS011;41589;51.196;7.074;2022-09-28T17:24:22;2.67;;;1.30;;
19575;SDS011;41589;51.196;7.074;2022-09-28T17:29:22;1.30;;;1.20;;
19575;SDS011;41589;51.196;7.074;2022-09-28T17:34:23;2.00;;;1.90;;
19575;SDS011;41589;51.196;7.074;2022-09-28T17:39:23;1.50;;;1.40;;
19575;SDS011;41589;51.196;7.074;2022-09-28T17:44:24;1.50;;;1.40;;
19575;SDS011;41589;51.196;7.074;2022-09-28T17:49:24;2.60;;;2.40;;
19575;SDS011;41589;51.196;7.074;2022-09-28T17:54:24;1.97;;;1.77;;
19575;SDS011;41589;51.196;7.074;2022-09-28T17:59:25;1.70;;;1.60;;
19575;SDS011;41589;51.196;7.074;2022-09-28T18:04:27;1.60;;;1.50;;
19575;SDS011;41589;51.196;7.074;2022-09-28T18:09:27;1.93;;;1.83;;
19575;SDS011;41589;51.196;7.074;2022-09-28T18:14:28;2.27;;;2.17;;
19575;SDS011;41589;51.196;7.074;2022-09-28T18:19:29;2.57;;;2.40;;
19575;SDS011;41589;51.196;7.074;2022-09-28T18:24:29;2.50;;;2.40;;
19575;SDS011;41589;51.196;7.074;2022-09-28T18:29:31;2.60;;;2.40;;
19575;SDS011;41589;51.196;7.074;2022-09-28T18:34:34;2.80;;;2.70;;
19575;SDS011;41589;51.196;7.074;2022-09-28T18:39:35;3.30;;;3.00;;
19575;SDS011;41589;51.196;7.074;2022-09-28T18:44:36;2.70;;;2.60;;
19575;SDS011;41589;51.196;7.074;2022-09-28T18:49:36;2.67;;;2.47;;
19575;SDS011;41589;51.196;7.074;2022-09-28T18:54:38;2.80;;;2.60;;
19575;SDS011;41589;51.196;7.074;2022-09-28T18:59:39;3.00;;;2.80;;
19575;SDS011;41589;51.196;7.074;2022-09-28T19:04:39;3.87;;;3.57;;
19575;SDS011;41589;51.196;7.074;2022-09-28T19:09:40;4.70;;;4.40;;
19575;SDS011;41589;51.196;7.074;2022-09-28T19:14:43;4.53;;;4.23;;
19575;SDS011;41589;51.196;7.074;2022-09-28T19:19:43;3.67;;;3.47;;
19575;SDS011;41589;51.196;7.074;2022-09-28T19:24:44;3.83;;;3.53;;
19575;SDS011;41589;51.196;7.074;2022-09-28T19:29:44;3.53;;;3.33;;
19575;SDS011;41589;51.196;7.074;2022-09-28T19:34:44;3.80;;;3.50;;
19575;SDS011;41589;51.196;7.074;2022-09-28T19:39:45;4.00;;;3.70;;
19575;SDS011;41589;51.196;7.074;2022-09-28T19:44:45;3.40;;;3.17;;
19575;SDS011;41589;51.196;7.074;2022-09-28T19:49:46;3.57;;;3.37;;
19575;SDS011;41589;51.196;7.074;2022-09-28T19:54:47;3.43;;;3.23;;
19575;SDS011;41589;51.196;7.074;2022-09-28T19:59:59;2.97;;;2.77;;
19575;SDS011;41589;51.196;7.074;2022-09-28T20:05:01;2.90;;;2.70;;
19575;SDS011;41589;51.196;7.074;2022-09-28T20:10:01;3.07;;;2.87;;
19575;SDS011;41589;51.196;7.074;2022-09-28T20:15:02;2.70;;;2.50;;
19575;SDS011;41589;51.196;7.074;2022-09-28T20:20:04;3.60;;;3.20;;
19575;SDS011;41589;51.196;7.074;2022-09-28T20:25:04;3.07;;;2.87;;
19575;SDS011;41589;51.196;7.074;2022-09-28T20:30:06;3.00;;;2.80;;
19575;SDS011;41589;51.196;7.074;2022-09-28T20:35:07;3.17;;;2.97;;
19575;SDS011;41589;51.196;7.074;2022-09-28T20:40:08;3.20;;;3.00;;
19575;SDS011;41589;51.196;7.074;2022-09-28T20:45:10;3.40;;;3.20;;
19575;SDS011;41589;51.196;7.074;2022-09-28T20:50:10;3.60;;;3.30;;
19575;SDS011;41589;51.196;7.074;2022-09-28T20:55:10;5.13;;;4.73;;
19575;SDS011;41589;51.196;7.074;2022-09-28T21:00:11;4.50;;;4.20;;
19575;SDS011;41589;51.196;7.074;2022-09-28T21:05:12;3.40;;;3.20;;
19575;SDS011;41589;51.196;7.074;2022-09-28T21:10:12;4.80;;;3.93;;
19575;SDS011;41589;51.196;7.074;2022-09-28T21:15:13;3.60;;;3.30;;
19575;SDS011;41589;51.196;7.074;2022-09-28T21:20:13;4.20;;;3.90;;
19575;SDS011;41589;51.196;7.074;2022-09-28T21:25:13;3.80;;;3.60;;
19575;SDS011;41589;51.196;7.074;2022-09-28T21:30:14;3.87;;;3.57;;
19575;SDS011;41589;51.196;7.074;2022-09-28T21:35:18;3.80;;;3.60;;
19575;SDS011;41589;51.196;7.074;2022-09-28T21:40:19;3.90;;;3.70;;
19575;SDS011;41589;51.196;7.074;2022-09-28T21:45:20;3.67;;;3.40;;
19575;SDS011;41589;51.196;7.074;2022-09-28T21:50:21;4.10;;;3.80;;
19575;SDS011;41589;51.196;7.074;2022-09-28T21:55:23;3.50;;;3.30;;
19575;SDS011;41589;51.196;7.074;2022-09-28T22:00:23;4.10;;;3.80;;
19575;SDS011;41589;51.196;7.074;2022-09-28T22:05:23;3.80;;;3.50;;
19575;SDS011;41589;51.196;7.074;2022-09-28T22:10:24;3.63;;;3.43;;
19575;SDS011;41589;51.196;7.074;2022-09-28T22:15:24;3.83;;;3.60;;
19575;SDS011;41589;51.196;7.074;2022-09-28T22:20:25;3.80;;;3.50;;
19575;SDS011;41589;51.196;7.074;2022-09-28T22:25:25;4.13;;;3.83;;
19575;SDS011;41589;51.196;7.074;2022-09-28T22:30:25;3.80;;;3.60;;
19575;SDS011;41589;51.196;7.074;2022-09-28T22:35:26;3.70;;;3.40;;
19575;SDS011;41589;51.196;7.074;2022-09-28T22:40:26;3.77;;;3.47;;
19575;SDS011;41589;51.196;7.074;2022-09-28T22:45:27;3.57;;;3.37;;
19575;SDS011;41589;51.196;7.074;2022-09-28T22:50:27;3.53;;;3.33;;
19575;SDS011;41589;51.196;7.074;2022-09-28T22:55:28;4.13;;;3.83;;
19575;SDS011;41589;51.196;7.074;2022-09-28T23:00:28;3.53;;;3.33;;
19575;SDS011;41589;51.196;7.074;2022-09-28T23:05:29;3.50;;;3.30;;
19575;SDS011;41589;51.196;7.074;2022-09-28T23:10:30;3.97;;;3.70;;
19575;SDS011;41589;51.196;7.074;2022-09-28T23:15:30;4.10;;;3.80;;
19575;SDS011;41589;51.196;7.074;2022-09-28T23:20:31;4.10;;;3.70;;
19575;SDS011;41589;51.196;7.074;2022-09-28T23:25:32;3.90;;;3.60;;
19575;SDS011;41589;51.196;7.074;2022-09-28T23:30:32;4.00;;;3.70;;
19575;SDS011;41589;51.196;7.074;2022-09-28T23:35:32;4.50;;;4.20;;
19575;SDS011;41589;51.196;7.074;2022-09-28T23:40:33;4.30;;;4.07;;
19575;SDS011;41589;51.196;7.074;2022-09-28T23:45:33;4.60;;;4.20;;
19575;SDS011;41589;51.196;7.074;2022-09-28T23:50:34;4.30;;;4.00;;
19575;SDS011;41589;51.196;7.074;2022-09-28T23:55:34;4.63;;;4.33;;
